createdAt,value
2023-04-10T00:00:18.815Z,16.90
2023-04-10T00:02:48.657Z,17.00
2023-04-10T00:05:17.831Z,15.70
2023-04-10T00:07:46.072Z,20.20
2023-04-10T00:10:14.248Z,16.40
2023-04-10T00:12:48.180Z,15.50
2023-04-10T00:15:16.304Z,15.70
2023-04-10T00:17:46.671Z,19.90
2023-04-10T00:20:14.794Z,15.20
2023-04-10T00:22:44.120Z,21.50
2023-04-10T00:25:12.158Z,20.10
2023-04-10T00:27:41.459Z,15.00
2023-04-10T00:30:09.748Z,16.50
2023-04-10T00:32:46.733Z,16.40
2023-04-10T00:35:18.261Z,17.80
2023-04-10T00:37:47.251Z,17.20
2023-04-10T00:40:15.496Z,17.40
2023-04-10T00:42:44.004Z,17.50
2023-04-10T00:45:12.113Z,21.50
2023-04-10T00:47:41.601Z,20.00
2023-04-10T00:50:10.460Z,18.70
2023-04-10T00:52:38.564Z,23.00
2023-04-10T00:55:07.976Z,22.30
2023-04-10T00:57:36.072Z,18.70
2023-04-10T01:00:05.757Z,20.30
2023-04-10T01:02:36.939Z,21.30
2023-04-10T01:05:06.304Z,24.10
2023-04-10T01:07:52.693Z,24.70
2023-04-10T01:10:30.719Z,20.00
2023-04-10T01:13:20.708Z,25.50
2023-04-10T01:16:22.954Z,25.70
2023-04-10T01:18:55.479Z,21.80
2023-04-10T01:21:24.149Z,23.70
2023-04-10T01:24:10.920Z,22.90
2023-04-10T01:27:11.337Z,24.70
2023-04-10T01:29:44.701Z,22.70
2023-04-10T01:32:18.616Z,21.10
2023-04-10T01:34:51.432Z,20.20
2023-04-10T01:37:27.213Z,18.50
2023-04-10T01:40:01.141Z,20.90
2023-04-10T01:42:35.585Z,21.80
2023-04-10T01:45:04.909Z,19.80
2023-04-10T01:47:33.101Z,21.60
2023-04-10T01:50:02.093Z,21.90
2023-04-10T01:52:31.056Z,20.60
2023-04-10T01:55:08.334Z,21.00
2023-04-10T01:57:46.650Z,22.50
2023-04-10T02:00:20.475Z,22.60
2023-04-10T02:02:49.706Z,28.40
2023-04-10T02:05:18.191Z,23.00
2023-04-10T02:08:12.802Z,23.50
2023-04-10T02:10:43.907Z,23.40
2023-04-10T02:13:12.410Z,23.90
2023-04-10T02:15:42.873Z,23.60
2023-04-10T02:18:11.532Z,24.50
2023-04-10T02:20:39.568Z,21.80
2023-04-10T02:23:10.015Z,26.10
2023-04-10T02:25:39.093Z,24.20
2023-04-10T02:28:08.019Z,28.10
2023-04-10T02:30:39.833Z,29.10
2023-04-10T02:33:08.778Z,29.10
2023-04-10T02:35:37.783Z,29.70
2023-04-10T02:38:05.996Z,27.80
2023-04-10T02:40:37.226Z,24.90
2023-04-10T02:43:13.461Z,28.10
2023-04-10T02:45:42.720Z,28.60
2023-04-10T02:48:13.305Z,24.20
2023-04-10T02:50:46.374Z,30.80
2023-04-10T02:53:16.211Z,28.80
2023-04-10T02:55:45.815Z,23.50
2023-04-10T02:58:15.164Z,22.10
2023-04-10T03:00:51.117Z,25.10
2023-04-10T03:03:29.458Z,23.00
2023-04-10T03:05:58.081Z,25.60
2023-04-10T03:08:31.267Z,30.00
2023-04-10T03:10:59.441Z,27.00
2023-04-10T03:13:28.146Z,22.50
2023-04-10T03:15:56.285Z,19.80
2023-04-10T03:18:24.322Z,22.10
2023-04-10T03:20:56.640Z,22.60
2023-04-10T03:23:24.906Z,21.20
2023-04-10T03:25:56.363Z,22.70
2023-04-10T03:28:27.951Z,21.10
2023-04-10T03:30:55.987Z,22.00
2023-04-10T03:33:25.019Z,24.50
2023-04-10T03:35:57.421Z,23.50
2023-04-10T03:38:25.759Z,29.90
2023-04-10T03:40:54.151Z,23.00
2023-04-10T03:43:25.014Z,24.70
2023-04-10T03:45:53.110Z,26.60
2023-04-10T03:48:22.042Z,25.60
2023-04-10T03:50:50.273Z,25.50
2023-04-10T03:53:18.632Z,27.40
2023-04-10T03:55:47.091Z,28.30
2023-04-10T03:58:15.373Z,27.40
2023-04-10T04:00:44.442Z,26.90
2023-04-10T04:03:22.956Z,28.40
2023-04-10T04:05:59.176Z,27.90
2023-04-10T04:08:36.486Z,25.40
2023-04-10T04:11:15.866Z,30.70
2023-04-10T04:14:06.557Z,34.20
2023-04-10T04:16:47.763Z,34.10
2023-04-10T04:19:27.950Z,29.60
2023-04-10T04:22:23.109Z,29.80
2023-04-10T04:25:11.017Z,28.70
2023-04-10T04:27:59.296Z,29.60
2023-04-10T04:30:46.752Z,27.20
2023-04-10T04:33:38.011Z,25.20
2023-04-10T04:36:25.835Z,25.80
2023-04-10T04:39:06.158Z,26.30
2023-04-10T04:41:54.461Z,24.50
2023-04-10T04:44:42.191Z,26.30
2023-04-10T04:47:19.706Z,24.00
2023-04-10T04:50:10.012Z,24.40
2023-04-10T04:53:01.330Z,24.00
2023-04-10T04:56:02.788Z,29.20
2023-04-10T04:59:00.043Z,27.30
2023-04-10T05:01:46.859Z,26.20
2023-04-10T05:04:35.177Z,24.20
2023-04-10T05:07:18.039Z,29.90
2023-04-10T05:09:52.330Z,28.30
2023-04-10T05:12:21.510Z,24.20
2023-04-10T05:15:01.803Z,26.70
2023-04-10T05:17:41.865Z,30.60
2023-04-10T05:20:36.193Z,29.30
2023-04-10T05:23:26.267Z,31.30
2023-04-10T05:26:14.699Z,26.90
2023-04-10T05:28:56.941Z,33.50
2023-04-10T05:31:34.781Z,27.70
2023-04-10T05:34:23.236Z,27.00
2023-04-10T05:37:11.662Z,29.60
2023-04-10T05:40:00.279Z,23.80
2023-04-10T05:42:29.612Z,23.90
2023-04-10T05:45:33.076Z,25.90
2023-04-10T05:48:26.164Z,29.20
2023-04-10T05:51:20.397Z,23.50
2023-04-10T05:54:17.353Z,22.80
2023-04-10T05:56:50.538Z,27.10
2023-04-10T05:59:22.089Z,28.50
2023-04-10T06:02:17.292Z,25.20
2023-04-10T06:04:46.734Z,24.30
2023-04-10T06:07:17.883Z,25.90
2023-04-10T06:09:47.000Z,25.60
2023-04-10T06:12:16.368Z,23.30
2023-04-10T06:14:47.752Z,23.80
2023-04-10T06:17:21.737Z,19.90
2023-04-10T06:19:50.013Z,22.90
2023-04-10T06:22:22.695Z,25.60
2023-04-10T06:24:52.834Z,25.50
2023-04-10T06:27:20.949Z,26.40
2023-04-10T06:29:52.032Z,26.60
2023-04-10T06:32:23.133Z,28.20
2023-04-10T06:34:51.801Z,28.00
2023-04-10T06:37:28.491Z,26.00
2023-04-10T06:40:10.511Z,25.50
2023-04-10T06:42:38.912Z,26.20
2023-04-10T06:47:52.512Z,24.10
2023-04-10T06:50:23.391Z,24.80
2023-04-10T06:52:53.386Z,21.00
2023-04-10T06:55:21.942Z,23.00
2023-04-10T06:58:10.004Z,25.40
2023-04-10T07:00:38.797Z,28.90
2023-04-10T07:03:08.171Z,27.30
2023-04-10T07:05:36.457Z,24.90
2023-04-10T07:08:04.535Z,22.70
2023-04-10T07:10:34.488Z,24.70
2023-04-10T07:13:03.063Z,29.70
2023-04-10T07:15:41.688Z,26.00
2023-04-10T07:18:10.395Z,27.40
2023-04-10T07:20:38.499Z,23.20
2023-04-10T07:23:11.885Z,23.60
2023-04-10T07:25:42.470Z,28.60
2023-04-10T07:28:10.706Z,24.80
2023-04-10T07:30:42.884Z,28.40
2023-04-10T07:33:11.296Z,27.70
2023-04-10T07:35:39.653Z,26.40
2023-04-10T07:38:08.271Z,30.20
2023-04-10T07:40:36.542Z,27.90
2023-04-10T07:43:04.658Z,26.50
2023-04-10T07:45:33.221Z,24.30
2023-04-10T07:48:02.807Z,23.20
2023-04-10T07:50:34.252Z,25.60
2023-04-10T07:53:07.779Z,28.70
2023-04-10T07:55:39.548Z,25.70
2023-04-10T07:58:12.106Z,37.10
2023-04-10T08:00:40.404Z,30.30
2023-04-10T08:03:09.118Z,26.40
2023-04-10T08:05:39.808Z,24.70
2023-04-10T08:08:07.850Z,29.30
2023-04-10T08:10:38.668Z,29.20
2023-04-10T08:13:07.436Z,26.20
2023-04-10T08:15:35.877Z,23.90
2023-04-10T08:18:09.507Z,27.70
2023-04-10T08:20:37.640Z,24.30
2023-04-10T08:23:16.988Z,22.00
2023-04-10T08:25:48.703Z,37.00
2023-04-10T08:28:16.807Z,23.20
2023-04-10T08:30:45.537Z,32.20
2023-04-10T08:33:14.031Z,25.20
2023-04-10T08:35:43.233Z,12.60
2023-04-10T08:38:13.960Z,11.70
2023-04-10T08:40:44.806Z,23.10
2023-04-10T08:43:13.945Z,17.70
2023-04-10T08:45:43.441Z,18.30
2023-04-10T08:48:11.684Z,17.80
2023-04-10T08:50:43.146Z,18.10
2023-04-10T08:53:13.786Z,18.10
2023-04-10T08:55:44.806Z,15.10
2023-04-10T08:58:14.042Z,20.60
2023-04-10T09:00:42.152Z,20.00
2023-04-10T09:03:14.339Z,13.60
2023-04-10T09:05:42.830Z,18.30
2023-04-10T09:08:13.803Z,26.50
2023-04-10T09:10:42.134Z,18.30
2023-04-10T09:13:11.645Z,38.60
2023-04-10T09:15:57.163Z,17.50
2023-04-10T09:18:45.864Z,18.30
2023-04-10T09:21:16.127Z,21.10
2023-04-10T09:23:44.795Z,11.60
2023-04-10T09:26:29.829Z,32.80
2023-04-10T09:29:00.235Z,13.80
2023-04-10T09:31:36.101Z,17.00
2023-04-10T09:34:07.981Z,10.70
2023-04-10T09:36:37.636Z,14.10
2023-04-10T09:39:09.210Z,11.20
2023-04-10T09:42:07.630Z,15.80
2023-04-10T09:44:37.460Z,12.80
2023-04-10T09:47:13.762Z,13.80
2023-04-10T09:49:46.620Z,16.00
2023-04-10T09:52:19.521Z,9.80
2023-04-10T09:54:47.848Z,11.40
2023-04-10T09:57:20.342Z,13.10
2023-04-10T09:59:56.702Z,9.20
2023-04-10T10:02:28.891Z,15.10
2023-04-10T10:04:57.860Z,11.80
2023-04-10T10:07:26.799Z,14.60
2023-04-10T10:09:55.629Z,17.90
2023-04-10T10:12:49.699Z,13.80
2023-04-10T10:15:31.382Z,14.80
2023-04-10T10:18:21.076Z,12.20
2023-04-10T10:20:49.244Z,12.20
2023-04-10T10:23:17.620Z,9.00
2023-04-10T10:25:46.497Z,9.80
2023-04-10T10:28:14.983Z,10.70
2023-04-10T10:30:44.905Z,11.10
2023-04-10T10:33:13.661Z,12.20
2023-04-10T10:35:42.115Z,12.50
2023-04-10T10:38:12.978Z,10.00
2023-04-10T10:40:44.029Z,10.80
2023-04-10T10:43:16.898Z,10.60
2023-04-10T10:45:57.005Z,9.70
2023-04-10T10:48:25.279Z,11.50
2023-04-10T10:50:57.492Z,9.90
2023-04-10T10:53:44.315Z,7.60
2023-04-10T10:56:18.821Z,13.90
2023-04-10T10:58:55.896Z,10.10
2023-04-10T11:01:24.485Z,8.20
2023-04-10T11:03:54.024Z,7.80
2023-04-10T11:06:44.684Z,8.50
2023-04-10T11:09:51.202Z,6.70
2023-04-10T11:12:22.328Z,10.20
2023-04-10T11:15:01.443Z,5.50
2023-04-10T11:17:54.339Z,6.50
2023-04-10T11:20:27.527Z,7.80
2023-04-10T11:23:12.378Z,8.10
2023-04-10T11:25:54.855Z,7.90
2023-04-10T11:28:35.599Z,5.10
2023-04-10T11:31:16.213Z,6.50
2023-04-10T11:34:08.526Z,5.70
2023-04-10T11:36:40.879Z,5.90
2023-04-10T11:39:19.959Z,5.10
2023-04-10T11:41:52.079Z,5.50
2023-04-10T11:44:26.628Z,10.70
2023-04-10T11:46:54.716Z,8.60
2023-04-10T11:49:25.245Z,6.20
2023-04-10T11:51:53.525Z,8.60
2023-04-10T11:54:25.904Z,4.60
2023-04-10T11:57:04.565Z,8.30
2023-04-10T11:59:33.496Z,7.90
2023-04-10T12:02:14.390Z,7.30
2023-04-10T12:04:44.100Z,11.40
2023-04-10T12:07:13.670Z,10.60
2023-04-10T12:09:42.882Z,8.80
2023-04-10T12:12:12.544Z,12.30
2023-04-10T12:14:42.399Z,12.50
2023-04-10T12:17:11.633Z,13.70
2023-04-10T12:19:53.551Z,15.90
2023-04-10T12:22:22.159Z,34.40
2023-04-10T12:24:54.006Z,13.60
2023-04-10T12:27:23.076Z,14.10
2023-04-10T12:29:52.404Z,9.80
2023-04-10T12:32:20.901Z,9.60
2023-04-10T12:34:57.263Z,7.10
2023-04-10T12:37:26.765Z,16.30
2023-04-10T12:40:07.486Z,43.80
2023-04-10T12:42:40.258Z,57.40
2023-04-10T12:45:10.296Z,18.70
2023-04-10T12:47:49.235Z,12.10
2023-04-10T12:50:19.040Z,12.50
2023-04-10T12:53:09.175Z,15.70
2023-04-10T12:55:38.212Z,12.90
2023-04-10T12:58:21.405Z,14.70
2023-04-10T13:00:49.985Z,16.90
2023-04-10T13:03:18.664Z,10.30
2023-04-10T13:05:52.136Z,20.20
2023-04-10T13:08:21.443Z,16.10
2023-04-10T13:10:51.062Z,18.40
2023-04-10T13:13:19.516Z,9.70
2023-04-10T13:15:49.131Z,15.50
2023-04-10T13:18:17.882Z,14.50
2023-04-10T13:20:45.908Z,10.80
2023-04-10T13:23:14.579Z,12.80
2023-04-10T13:25:43.173Z,10.20
2023-04-10T13:28:12.241Z,12.10
2023-04-10T13:30:43.782Z,14.20
2023-04-10T13:33:12.806Z,9.40
2023-04-10T13:35:41.467Z,12.70
2023-04-10T13:38:11.824Z,10.50
2023-04-10T13:40:43.818Z,11.30
2023-04-10T13:43:13.549Z,11.60
2023-04-10T13:45:41.870Z,13.80
2023-04-10T13:48:11.396Z,11.30
2023-04-10T13:50:39.595Z,13.50
2023-04-10T13:53:15.042Z,13.00
2023-04-10T13:55:47.733Z,11.00
2023-04-10T13:58:16.231Z,11.70
2023-04-10T14:00:47.160Z,12.10
2023-04-10T14:03:16.440Z,13.60
2023-04-10T14:05:45.837Z,12.80
2023-04-10T14:08:16.026Z,11.50
2023-04-10T14:10:44.815Z,11.00
2023-04-10T14:13:13.034Z,10.20
2023-04-10T14:15:42.346Z,11.20
2023-04-10T14:18:18.691Z,9.00
2023-04-10T14:20:54.062Z,11.10
2023-04-10T14:23:22.912Z,11.40
2023-04-10T14:25:51.257Z,11.90
2023-04-10T14:28:20.901Z,11.00
2023-04-10T14:30:50.689Z,11.90
2023-04-10T14:33:22.253Z,14.30
2023-04-10T14:35:50.579Z,11.50
2023-04-10T14:38:19.519Z,14.80
2023-04-10T14:40:50.384Z,18.40
2023-04-10T14:43:19.620Z,20.80
2023-04-10T14:45:50.393Z,16.60
2023-04-10T14:48:26.950Z,19.20
2023-04-10T14:50:56.901Z,20.80
2023-04-10T14:53:25.399Z,16.80
2023-04-10T14:55:53.768Z,18.90
2023-04-10T14:58:22.258Z,13.70
2023-04-10T15:00:51.025Z,15.00
2023-04-10T15:03:19.433Z,16.00
2023-04-10T15:05:47.942Z,14.10
2023-04-10T15:08:16.246Z,16.50
2023-04-10T15:10:44.276Z,17.10
2023-04-10T15:13:12.680Z,24.10
2023-04-10T15:15:40.797Z,23.90
2023-04-10T15:18:08.878Z,21.30
2023-04-10T15:20:37.660Z,22.90
2023-04-10T15:23:06.391Z,17.60
2023-04-10T15:25:34.765Z,21.50
2023-04-10T15:28:03.158Z,24.60
2023-04-10T15:30:31.778Z,24.20
2023-04-10T15:33:01.002Z,19.80
2023-04-10T15:35:30.583Z,21.20
2023-04-10T15:37:58.885Z,29.90
2023-04-10T15:40:27.013Z,22.60
2023-04-10T15:42:55.420Z,23.80
2023-04-10T15:45:23.447Z,21.20
2023-04-10T15:47:51.570Z,19.20
2023-04-10T15:50:22.287Z,23.90
2023-04-10T15:52:51.337Z,20.40
2023-04-10T15:55:19.499Z,22.70
2023-04-10T15:57:50.698Z,25.30
2023-04-10T16:00:19.152Z,28.20
2023-04-10T16:02:47.593Z,23.00
2023-04-10T16:05:15.954Z,19.40
2023-04-10T16:07:44.498Z,25.00
2023-04-10T16:10:12.866Z,20.10
2023-04-10T16:12:47.938Z,20.70
2023-04-10T16:15:16.914Z,24.00
2023-04-10T16:17:45.628Z,20.30
2023-04-10T16:20:19.772Z,19.20
2023-04-10T16:22:47.872Z,20.30
2023-04-10T16:25:16.647Z,17.00
2023-04-10T16:27:46.774Z,18.20
2023-04-10T16:30:14.955Z,19.30
2023-04-10T16:32:44.264Z,20.90
2023-04-10T16:35:12.892Z,20.80
2023-04-10T16:37:41.171Z,22.80
2023-04-10T16:40:12.870Z,25.10
2023-04-10T16:42:42.982Z,19.20
2023-04-10T16:45:11.341Z,21.40
2023-04-10T16:47:40.611Z,20.20
2023-04-10T16:50:09.745Z,20.90
2023-04-10T16:52:41.362Z,17.90
2023-04-10T16:55:10.532Z,19.20
2023-04-10T16:57:38.658Z,20.80
2023-04-10T17:00:07.940Z,23.70
2023-04-10T17:02:37.635Z,22.00
2023-04-10T17:05:06.248Z,21.10
2023-04-10T17:07:37.712Z,18.40
2023-04-10T17:10:06.266Z,22.30
2023-04-10T17:12:35.019Z,22.90
2023-04-10T17:15:12.542Z,20.50
2023-04-10T17:17:41.107Z,19.20
2023-04-10T17:20:09.929Z,18.00
2023-04-10T17:22:39.474Z,21.30
2023-04-10T17:25:08.812Z,19.00
2023-04-10T17:27:39.728Z,18.60
2023-04-10T17:30:12.957Z,22.60
2023-04-10T17:32:43.595Z,18.80
2023-04-10T17:35:11.817Z,16.70
2023-04-10T17:37:40.435Z,21.10
2023-04-10T17:40:10.966Z,14.10
2023-04-10T17:42:44.865Z,16.30
2023-04-10T17:45:12.979Z,17.20
2023-04-10T17:47:41.152Z,20.30
2023-04-10T17:50:10.620Z,20.20
2023-04-10T17:52:39.831Z,16.80
2023-04-10T17:55:09.521Z,16.60
2023-04-10T17:57:39.315Z,16.40
2023-04-10T18:00:08.866Z,12.30
2023-04-10T18:02:38.501Z,14.40
2023-04-10T18:05:07.220Z,14.40
2023-04-10T18:07:38.410Z,15.30
2023-04-10T18:10:09.701Z,15.60
2023-04-10T18:12:40.458Z,14.50
2023-04-10T18:15:11.830Z,17.10
2023-04-10T18:17:40.659Z,14.90
2023-04-10T18:20:09.161Z,17.70
2023-04-10T18:22:37.926Z,13.40
2023-04-10T18:25:07.313Z,13.70
2023-04-10T18:27:43.607Z,14.00
2023-04-10T18:32:45.920Z,15.20
2023-04-10T18:35:14.088Z,13.70
2023-04-10T18:37:44.399Z,12.20
2023-04-10T18:40:16.724Z,13.70
2023-04-10T18:42:46.810Z,13.30
2023-04-10T18:45:14.863Z,15.00
2023-04-10T18:47:43.337Z,12.40
2023-04-10T18:50:11.994Z,14.60
2023-04-10T18:52:45.333Z,17.40
2023-04-10T18:55:13.409Z,16.90
2023-04-10T18:57:41.891Z,15.60
2023-04-10T19:00:11.889Z,18.50
2023-04-10T19:02:40.959Z,12.30
2023-04-10T19:05:10.503Z,16.50
2023-04-10T19:07:47.222Z,14.50
2023-04-10T19:10:21.484Z,13.40
2023-04-10T19:12:53.155Z,16.30
2023-04-10T19:15:21.478Z,17.50
2023-04-10T19:17:54.490Z,17.40
2023-04-10T19:20:48.679Z,15.70
2023-04-10T19:23:11.941Z,17.10
2023-04-10T19:25:41.625Z,18.00
2023-04-10T19:28:09.680Z,16.70
2023-04-10T19:30:57.664Z,19.80
2023-04-10T19:33:25.808Z,15.60
2023-04-10T19:35:54.030Z,21.90
2023-04-10T19:38:22.308Z,16.80
2023-04-10T19:40:54.830Z,21.10
2023-04-10T19:43:23.035Z,18.00
2023-04-10T19:45:53.090Z,18.20
2023-04-10T19:48:21.230Z,17.10
2023-04-10T19:50:49.665Z,16.60
2023-04-10T19:53:23.642Z,19.80
2023-04-10T19:55:52.172Z,21.70
2023-04-10T19:58:35.986Z,21.20
2023-04-10T20:01:10.377Z,26.00
2023-04-10T20:03:40.071Z,25.80
2023-04-10T20:06:08.563Z,23.00
2023-04-10T20:08:37.781Z,26.50
2023-04-10T20:11:06.755Z,21.50
2023-04-10T20:13:35.385Z,21.70
2023-04-10T20:16:08.353Z,18.10
2023-04-10T20:18:38.593Z,16.10
2023-04-10T20:21:08.402Z,14.40
2023-04-10T20:23:39.083Z,20.30
2023-04-10T20:26:07.211Z,17.20
2023-04-10T20:28:35.440Z,20.60
2023-04-10T20:31:05.053Z,18.20
2023-04-10T20:33:33.216Z,18.50
2023-04-10T20:36:01.332Z,20.10
2023-04-10T20:38:29.694Z,18.10
2023-04-10T20:40:58.252Z,17.70
2023-04-10T20:43:26.321Z,20.20
2023-04-10T20:45:54.647Z,17.60
2023-04-10T20:48:22.660Z,21.60
2023-04-10T20:50:51.894Z,20.70
2023-04-10T20:53:20.485Z,22.30
2023-04-10T20:55:52.199Z,19.30
2023-04-10T20:58:20.794Z,19.00
2023-04-10T21:00:53.134Z,17.90
2023-04-10T21:03:23.320Z,19.30
2023-04-10T21:05:53.236Z,17.40
2023-04-10T21:08:23.866Z,16.00
2023-04-10T21:10:52.707Z,23.30
2023-04-10T21:13:20.984Z,23.50
2023-04-10T21:15:49.726Z,20.70
2023-04-10T21:18:17.916Z,20.10
2023-04-10T21:20:50.582Z,23.50
2023-04-10T21:23:19.056Z,17.60
2023-04-10T21:25:54.312Z,18.50
2023-04-10T21:28:22.646Z,19.10
2023-04-10T21:30:51.139Z,21.90
2023-04-10T21:33:20.375Z,19.50
2023-04-10T21:35:49.456Z,23.80
2023-04-10T21:38:18.470Z,17.70
2023-04-10T21:40:51.456Z,19.60
2023-04-10T21:43:20.629Z,18.30
2023-04-10T21:45:48.789Z,20.90
2023-04-10T21:48:19.687Z,21.70
2023-04-10T21:50:49.299Z,20.10
2023-04-10T21:53:18.492Z,19.70
2023-04-10T21:55:46.904Z,19.70
2023-04-10T21:58:14.912Z,26.20
2023-04-10T22:00:47.067Z,18.80
2023-04-10T22:03:16.851Z,19.30
2023-04-10T22:05:46.047Z,22.00
2023-04-10T22:08:15.108Z,20.10
2023-04-10T22:10:45.546Z,20.10
2023-04-10T22:13:30.335Z,19.20
2023-04-10T22:16:02.176Z,18.80
2023-04-10T22:18:31.478Z,19.30
2023-04-10T22:21:13.390Z,17.90
2023-04-10T22:23:43.199Z,20.10
2023-04-10T22:26:11.809Z,18.00
2023-04-10T22:28:42.766Z,22.30
2023-04-10T22:31:17.969Z,20.20
2023-04-10T22:33:46.473Z,19.00
2023-04-10T22:36:15.594Z,19.00
2023-04-10T22:38:43.734Z,18.10
2023-04-10T22:41:12.220Z,19.80
2023-04-10T22:43:40.830Z,23.80
2023-04-10T22:46:12.798Z,22.90
2023-04-10T22:48:41.491Z,23.90
2023-04-10T22:51:13.256Z,27.50
2023-04-10T22:53:42.597Z,28.50
2023-04-10T22:56:11.120Z,29.60
2023-04-10T22:58:43.123Z,32.20
2023-04-10T23:01:14.428Z,28.60
2023-04-10T23:03:43.401Z,33.50
2023-04-10T23:06:13.289Z,31.90
2023-04-10T23:08:41.833Z,32.20
2023-04-10T23:11:09.856Z,26.50
2023-04-10T23:13:39.919Z,32.30
2023-04-10T23:16:09.404Z,33.40
2023-04-10T23:18:37.736Z,31.90
2023-04-10T23:21:10.771Z,27.50
2023-04-10T23:23:38.991Z,25.70
2023-04-10T23:26:07.481Z,30.10
2023-04-10T23:28:37.008Z,27.20
2023-04-10T23:31:05.872Z,26.10
2023-04-10T23:33:34.126Z,25.30
2023-04-10T23:36:02.473Z,30.50
2023-04-10T23:38:31.176Z,26.00
2023-04-10T23:40:59.289Z,24.40
2023-04-10T23:43:27.671Z,26.70
2023-04-10T23:45:55.678Z,25.50
2023-04-10T23:48:29.070Z,25.00
2023-04-10T23:51:04.977Z,25.50
2023-04-10T23:53:33.127Z,25.60
2023-04-10T23:56:01.980Z,21.50
2023-04-10T23:58:30.453Z,32.50
